sensor_id;sensor_type;location;lat;lon;timestamp;P1;durP1;ratioP1;P2;durP2;ratioP2
18693;SDS011;9477;51.414;10.362;2023-04-25T00:01:35;6.47;;;2.70;;
18693;SDS011;9477;51.414;10.362;2023-04-25T00:03:38;6.90;;;3.03;;
18693;SDS011;9477;51.414;10.362;2023-04-25T00:05:42;5.57;;;3.17;;
18693;SDS011;9477;51.414;10.362;2023-04-25T00:07:46;7.67;;;3.20;;
18693;SDS011;9477;51.414;10.362;2023-04-25T00:09:49;6.20;;;3.20;;
18693;SDS011;9477;51.414;10.362;2023-04-25T00:11:54;10.50;;;3.23;;
18693;SDS011;9477;51.414;10.362;2023-04-25T00:13:57;8.43;;;3.80;;
18693;SDS011;9477;51.414;10.362;2023-04-25T00:16:04;7.77;;;3.47;;
18693;SDS011;9477;51.414;10.362;2023-04-25T00:18:07;6.43;;;3.40;;
18693;SDS011;9477;51.414;10.362;2023-04-25T00:20:11;10.20;;;3.40;;
18693;SDS011;9477;51.414;10.362;2023-04-25T00:22:14;8.37;;;3.33;;
18693;SDS011;9477;51.414;10.362;2023-04-25T00:24:17;10.07;;;3.87;;
18693;SDS011;9477;51.414;10.362;2023-04-25T00:26:20;7.87;;;3.57;;
18693;SDS011;9477;51.414;10.362;2023-04-25T00:28:24;7.80;;;4.37;;
18693;SDS011;9477;51.414;10.362;2023-04-25T00:30:27;13.63;;;5.03;;
18693;SDS011;9477;51.414;10.362;2023-04-25T00:32:30;8.53;;;4.00;;
18693;SDS011;9477;51.414;10.362;2023-04-25T00:34:33;6.30;;;4.03;;
18693;SDS011;9477;51.414;10.362;2023-04-25T00:36:36;10.53;;;4.60;;
18693;SDS011;9477;51.414;10.362;2023-04-25T00:38:39;10.70;;;4.60;;
18693;SDS011;9477;51.414;10.362;2023-04-25T00:40:42;10.67;;;5.07;;
18693;SDS011;9477;51.414;10.362;2023-04-25T00:42:47;7.70;;;5.10;;
18693;SDS011;9477;51.414;10.362;2023-04-25T00:44:52;9.57;;;5.37;;
18693;SDS011;9477;51.414;10.362;2023-04-25T00:46:55;11.07;;;5.67;;
18693;SDS011;9477;51.414;10.362;2023-04-25T00:48:58;9.83;;;6.13;;
18693;SDS011;9477;51.414;10.362;2023-04-25T00:51:01;11.23;;;6.33;;
18693;SDS011;9477;51.414;10.362;2023-04-25T00:53:04;14.73;;;6.70;;
18693;SDS011;9477;51.414;10.362;2023-04-25T00:55:08;10.27;;;6.07;;
18693;SDS011;9477;51.414;10.362;2023-04-25T00:57:12;12.67;;;6.43;;
18693;SDS011;9477;51.414;10.362;2023-04-25T00:59:16;11.63;;;7.17;;
18693;SDS011;9477;51.414;10.362;2023-04-25T01:01:22;11.93;;;7.20;;
18693;SDS011;9477;51.414;10.362;2023-04-25T01:03:25;10.33;;;7.50;;
18693;SDS011;9477;51.414;10.362;2023-04-25T01:05:31;16.93;;;7.80;;
18693;SDS011;9477;51.414;10.362;2023-04-25T01:07:34;15.50;;;8.13;;
18693;SDS011;9477;51.414;10.362;2023-04-25T01:09:37;15.03;;;7.50;;
18693;SDS011;9477;51.414;10.362;2023-04-25T01:11:40;12.57;;;7.37;;
18693;SDS011;9477;51.414;10.362;2023-04-25T01:13:43;11.77;;;7.43;;
18693;SDS011;9477;51.414;10.362;2023-04-25T01:15:46;12.37;;;7.43;;
18693;SDS011;9477;51.414;10.362;2023-04-25T01:17:50;9.23;;;6.83;;
18693;SDS011;9477;51.414;10.362;2023-04-25T01:19:54;13.23;;;7.10;;
18693;SDS011;9477;51.414;10.362;2023-04-25T01:21:58;11.10;;;7.63;;
18693;SDS011;9477;51.414;10.362;2023-04-25T01:24:01;12.20;;;7.53;;
18693;SDS011;9477;51.414;10.362;2023-04-25T01:26:05;14.13;;;8.10;;
18693;SDS011;9477;51.414;10.362;2023-04-25T01:28:08;12.40;;;8.03;;
18693;SDS011;9477;51.414;10.362;2023-04-25T01:30:11;16.00;;;9.10;;
18693;SDS011;9477;51.414;10.362;2023-04-25T01:32:15;15.60;;;8.97;;
18693;SDS011;9477;51.414;10.362;2023-04-25T01:34:19;21.07;;;9.63;;
18693;SDS011;9477;51.414;10.362;2023-04-25T01:36:22;13.07;;;8.83;;
18693;SDS011;9477;51.414;10.362;2023-04-25T01:38:26;17.80;;;10.43;;
18693;SDS011;9477;51.414;10.362;2023-04-25T01:40:30;13.90;;;8.17;;
18693;SDS011;9477;51.414;10.362;2023-04-25T01:42:34;16.93;;;8.67;;
18693;SDS011;9477;51.414;10.362;2023-04-25T01:44:38;14.03;;;8.60;;
18693;SDS011;9477;51.414;10.362;2023-04-25T01:46:41;15.67;;;8.83;;
18693;SDS011;9477;51.414;10.362;2023-04-25T01:48:44;20.33;;;8.80;;
18693;SDS011;9477;51.414;10.362;2023-04-25T01:50:47;17.70;;;9.03;;
18693;SDS011;9477;51.414;10.362;2023-04-25T01:52:50;19.23;;;9.57;;
18693;SDS011;9477;51.414;10.362;2023-04-25T01:54:56;12.83;;;8.37;;
18693;SDS011;9477;51.414;10.362;2023-04-25T01:57:01;16.63;;;9.20;;
18693;SDS011;9477;51.414;10.362;2023-04-25T01:59:04;19.43;;;8.80;;
18693;SDS011;9477;51.414;10.362;2023-04-25T02:01:07;15.57;;;8.47;;
18693;SDS011;9477;51.414;10.362;2023-04-25T02:03:10;13.33;;;7.80;;
18693;SDS011;9477;51.414;10.362;2023-04-25T02:05:13;17.37;;;7.97;;
18693;SDS011;9477;51.414;10.362;2023-04-25T02:07:16;15.53;;;7.50;;
18693;SDS011;9477;51.414;10.362;2023-04-25T02:09:19;16.37;;;7.40;;
18693;SDS011;9477;51.414;10.362;2023-04-25T02:11:26;16.03;;;7.13;;
18693;SDS011;9477;51.414;10.362;2023-04-25T02:13:29;11.53;;;7.40;;
18693;SDS011;9477;51.414;10.362;2023-04-25T02:15:32;14.57;;;8.00;;
18693;SDS011;9477;51.414;10.362;2023-04-25T02:17:35;16.10;;;8.10;;
18693;SDS011;9477;51.414;10.362;2023-04-25T02:19:38;14.87;;;7.13;;
18693;SDS011;9477;51.414;10.362;2023-04-25T02:21:40;13.80;;;7.63;;
18693;SDS011;9477;51.414;10.362;2023-04-25T02:23:44;16.60;;;7.60;;
18693;SDS011;9477;51.414;10.362;2023-04-25T02:25:50;16.13;;;7.90;;
18693;SDS011;9477;51.414;10.362;2023-04-25T02:27:55;16.87;;;8.03;;
18693;SDS011;9477;51.414;10.362;2023-04-25T02:29:59;19.37;;;8.87;;
18693;SDS011;9477;51.414;10.362;2023-04-25T02:32:02;18.03;;;8.57;;
18693;SDS011;9477;51.414;10.362;2023-04-25T02:34:06;14.37;;;7.97;;
18693;SDS011;9477;51.414;10.362;2023-04-25T02:36:09;18.80;;;8.77;;
18693;SDS011;9477;51.414;10.362;2023-04-25T02:38:12;14.93;;;8.70;;
18693;SDS011;9477;51.414;10.362;2023-04-25T02:40:17;15.97;;;7.90;;
18693;SDS011;9477;51.414;10.362;2023-04-25T02:42:20;16.67;;;8.83;;
18693;SDS011;9477;51.414;10.362;2023-04-25T02:44:24;13.07;;;7.73;;
18693;SDS011;9477;51.414;10.362;2023-04-25T02:46:27;15.13;;;8.53;;
18693;SDS011;9477;51.414;10.362;2023-04-25T02:48:40;15.37;;;8.37;;
18693;SDS011;9477;51.414;10.362;2023-04-25T02:50:42;13.47;;;7.70;;
18693;SDS011;9477;51.414;10.362;2023-04-25T02:52:47;13.93;;;8.57;;
18693;SDS011;9477;51.414;10.362;2023-04-25T02:54:50;16.80;;;7.60;;
18693;SDS011;9477;51.414;10.362;2023-04-25T02:56:53;12.97;;;8.23;;
18693;SDS011;9477;51.414;10.362;2023-04-25T02:58:55;19.73;;;8.47;;
18693;SDS011;9477;51.414;10.362;2023-04-25T03:01:00;13.87;;;7.93;;
18693;SDS011;9477;51.414;10.362;2023-04-25T03:03:03;17.13;;;8.53;;
18693;SDS011;9477;51.414;10.362;2023-04-25T03:05:06;17.60;;;8.60;;
18693;SDS011;9477;51.414;10.362;2023-04-25T03:07:09;16.23;;;8.37;;
18693;SDS011;9477;51.414;10.362;2023-04-25T03:09:13;14.60;;;8.03;;
18693;SDS011;9477;51.414;10.362;2023-04-25T03:11:16;17.07;;;8.40;;
18693;SDS011;9477;51.414;10.362;2023-04-25T03:13:22;13.37;;;7.70;;
18693;SDS011;9477;51.414;10.362;2023-04-25T03:15:26;16.50;;;8.63;;
18693;SDS011;9477;51.414;10.362;2023-04-25T03:17:32;15.53;;;8.37;;
18693;SDS011;9477;51.414;10.362;2023-04-25T03:19:37;20.57;;;8.80;;
18693;SDS011;9477;51.414;10.362;2023-04-25T03:21:40;16.30;;;8.00;;
18693;SDS011;9477;51.414;10.362;2023-04-25T03:23:43;17.27;;;8.27;;
18693;SDS011;9477;51.414;10.362;2023-04-25T03:25:47;15.90;;;8.67;;
18693;SDS011;9477;51.414;10.362;2023-04-25T03:27:50;15.90;;;8.10;;
18693;SDS011;9477;51.414;10.362;2023-04-25T03:29:53;17.57;;;8.70;;
18693;SDS011;9477;51.414;10.362;2023-04-25T03:31:56;19.77;;;8.13;;
18693;SDS011;9477;51.414;10.362;2023-04-25T03:34:00;18.03;;;8.20;;
18693;SDS011;9477;51.414;10.362;2023-04-25T03:36:03;14.77;;;7.63;;
18693;SDS011;9477;51.414;10.362;2023-04-25T03:38:08;11.93;;;6.90;;
18693;SDS011;9477;51.414;10.362;2023-04-25T03:40:13;18.40;;;7.50;;
18693;SDS011;9477;51.414;10.362;2023-04-25T03:42:16;15.70;;;7.77;;
18693;SDS011;9477;51.414;10.362;2023-04-25T03:44:21;14.33;;;6.87;;
18693;SDS011;9477;51.414;10.362;2023-04-25T03:46:25;16.43;;;8.23;;
18693;SDS011;9477;51.414;10.362;2023-04-25T03:48:29;17.83;;;6.90;;
18693;SDS011;9477;51.414;10.362;2023-04-25T03:50:34;14.67;;;7.40;;
18693;SDS011;9477;51.414;10.362;2023-04-25T03:52:39;17.13;;;7.30;;
18693;SDS011;9477;51.414;10.362;2023-04-25T03:54:45;18.27;;;6.93;;
18693;SDS011;9477;51.414;10.362;2023-04-25T03:56:49;12.77;;;6.30;;
18693;SDS011;9477;51.414;10.362;2023-04-25T03:58:52;12.57;;;6.90;;
18693;SDS011;9477;51.414;10.362;2023-04-25T04:00:56;12.33;;;6.70;;
18693;SDS011;9477;51.414;10.362;2023-04-25T04:03:03;13.67;;;6.93;;
18693;SDS011;9477;51.414;10.362;2023-04-25T04:05:08;15.57;;;6.40;;
18693;SDS011;9477;51.414;10.362;2023-04-25T04:07:17;13.47;;;6.80;;
18693;SDS011;9477;51.414;10.362;2023-04-25T04:09:20;16.63;;;6.93;;
18693;SDS011;9477;51.414;10.362;2023-04-25T04:11:23;14.43;;;6.23;;
18693;SDS011;9477;51.414;10.362;2023-04-25T04:13:26;12.33;;;6.10;;
18693;SDS011;9477;51.414;10.362;2023-04-25T04:15:32;11.50;;;6.70;;
18693;SDS011;9477;51.414;10.362;2023-04-25T04:17:35;15.77;;;6.60;;
18693;SDS011;9477;51.414;10.362;2023-04-25T04:19:38;13.60;;;6.87;;
18693;SDS011;9477;51.414;10.362;2023-04-25T04:21:41;15.70;;;6.70;;
18693;SDS011;9477;51.414;10.362;2023-04-25T04:23:46;14.93;;;6.43;;
18693;SDS011;9477;51.414;10.362;2023-04-25T04:25:49;12.33;;;6.73;;
18693;SDS011;9477;51.414;10.362;2023-04-25T04:27:53;16.37;;;6.77;;
18693;SDS011;9477;51.414;10.362;2023-04-25T04:29:56;11.70;;;6.70;;
18693;SDS011;9477;51.414;10.362;2023-04-25T04:32:02;11.30;;;6.63;;
18693;SDS011;9477;51.414;10.362;2023-04-25T04:34:06;19.10;;;9.40;;
18693;SDS011;9477;51.414;10.362;2023-04-25T04:36:11;12.63;;;6.37;;
18693;SDS011;9477;51.414;10.362;2023-04-25T04:38:14;15.07;;;7.27;;
18693;SDS011;9477;51.414;10.362;2023-04-25T04:40:18;14.10;;;6.97;;
18693;SDS011;9477;51.414;10.362;2023-04-25T04:42:22;17.13;;;6.83;;
18693;SDS011;9477;51.414;10.362;2023-04-25T04:44:25;13.73;;;7.40;;
18693;SDS011;9477;51.414;10.362;2023-04-25T04:46:28;15.60;;;7.33;;
18693;SDS011;9477;51.414;10.362;2023-04-25T04:48:31;15.60;;;7.63;;
18693;SDS011;9477;51.414;10.362;2023-04-25T04:50:35;14.90;;;7.43;;
18693;SDS011;9477;51.414;10.362;2023-04-25T04:52:38;13.57;;;7.83;;
18693;SDS011;9477;51.414;10.362;2023-04-25T04:54:41;10.33;;;7.30;;
18693;SDS011;9477;51.414;10.362;2023-04-25T04:56:45;18.70;;;7.17;;
18693;SDS011;9477;51.414;10.362;2023-04-25T04:58:49;12.60;;;6.97;;
18693;SDS011;9477;51.414;10.362;2023-04-25T05:00:51;12.37;;;6.93;;
18693;SDS011;9477;51.414;10.362;2023-04-25T05:02:54;14.23;;;7.10;;
18693;SDS011;9477;51.414;10.362;2023-04-25T05:04:58;14.83;;;7.73;;
18693;SDS011;9477;51.414;10.362;2023-04-25T05:07:01;15.63;;;7.90;;
18693;SDS011;9477;51.414;10.362;2023-04-25T05:09:03;17.30;;;7.63;;
18693;SDS011;9477;51.414;10.362;2023-04-25T05:11:06;12.63;;;7.83;;
18693;SDS011;9477;51.414;10.362;2023-04-25T05:13:11;13.23;;;8.30;;
18693;SDS011;9477;51.414;10.362;2023-04-25T05:15:13;13.87;;;8.37;;
18693;SDS011;9477;51.414;10.362;2023-04-25T05:17:16;14.60;;;8.43;;
18693;SDS011;9477;51.414;10.362;2023-04-25T05:19:19;13.20;;;7.93;;
18693;SDS011;9477;51.414;10.362;2023-04-25T05:21:22;14.27;;;8.23;;
18693;SDS011;9477;51.414;10.362;2023-04-25T05:23:25;14.03;;;8.17;;
18693;SDS011;9477;51.414;10.362;2023-04-25T05:25:29;13.33;;;8.27;;
18693;SDS011;9477;51.414;10.362;2023-04-25T05:27:31;13.90;;;8.47;;
18693;SDS011;9477;51.414;10.362;2023-04-25T05:29:35;17.07;;;7.67;;
18693;SDS011;9477;51.414;10.362;2023-04-25T05:31:38;14.27;;;8.97;;
18693;SDS011;9477;51.414;10.362;2023-04-25T05:33:42;14.60;;;8.53;;
18693;SDS011;9477;51.414;10.362;2023-04-25T05:35:47;15.70;;;8.13;;
18693;SDS011;9477;51.414;10.362;2023-04-25T05:37:51;17.03;;;7.93;;
18693;SDS011;9477;51.414;10.362;2023-04-25T05:39:54;13.80;;;8.17;;
18693;SDS011;9477;51.414;10.362;2023-04-25T05:41:56;14.37;;;8.40;;
18693;SDS011;9477;51.414;10.362;2023-04-25T05:43:59;15.63;;;7.50;;
18693;SDS011;9477;51.414;10.362;2023-04-25T05:46:04;11.07;;;7.33;;
18693;SDS011;9477;51.414;10.362;2023-04-25T05:48:07;11.13;;;6.83;;
18693;SDS011;9477;51.414;10.362;2023-04-25T05:50:10;12.57;;;6.63;;
18693;SDS011;9477;51.414;10.362;2023-04-25T05:52:13;13.40;;;6.03;;
18693;SDS011;9477;51.414;10.362;2023-04-25T05:54:16;13.00;;;7.60;;
18693;SDS011;9477;51.414;10.362;2023-04-25T05:56:20;11.00;;;6.63;;
18693;SDS011;9477;51.414;10.362;2023-04-25T05:58:23;10.37;;;7.10;;
18693;SDS011;9477;51.414;10.362;2023-04-25T06:00:26;19.47;;;9.00;;
18693;SDS011;9477;51.414;10.362;2023-04-25T06:02:30;12.57;;;7.93;;
18693;SDS011;9477;51.414;10.362;2023-04-25T06:04:33;13.37;;;8.33;;
18693;SDS011;9477;51.414;10.362;2023-04-25T06:06:37;12.77;;;8.10;;
18693;SDS011;9477;51.414;10.362;2023-04-25T06:08:40;13.20;;;8.23;;
18693;SDS011;9477;51.414;10.362;2023-04-25T06:10:43;19.83;;;8.20;;
18693;SDS011;9477;51.414;10.362;2023-04-25T06:12:46;15.53;;;8.37;;
18693;SDS011;9477;51.414;10.362;2023-04-25T06:14:49;12.20;;;7.70;;
18693;SDS011;9477;51.414;10.362;2023-04-25T06:16:52;15.93;;;8.63;;
18693;SDS011;9477;51.414;10.362;2023-04-25T06:18:57;11.33;;;8.10;;
18693;SDS011;9477;51.414;10.362;2023-04-25T06:20:59;13.43;;;9.67;;
18693;SDS011;9477;51.414;10.362;2023-04-25T06:23:02;11.83;;;8.70;;
18693;SDS011;9477;51.414;10.362;2023-04-25T06:25:06;13.20;;;7.30;;
18693;SDS011;9477;51.414;10.362;2023-04-25T06:27:09;11.93;;;7.03;;
18693;SDS011;9477;51.414;10.362;2023-04-25T06:29:12;13.73;;;7.20;;
18693;SDS011;9477;51.414;10.362;2023-04-25T06:31:15;17.40;;;8.13;;
18693;SDS011;9477;51.414;10.362;2023-04-25T06:33:18;17.77;;;8.13;;
18693;SDS011;9477;51.414;10.362;2023-04-25T06:35:22;16.17;;;8.03;;
18693;SDS011;9477;51.414;10.362;2023-04-25T06:37:25;15.13;;;7.13;;
18693;SDS011;9477;51.414;10.362;2023-04-25T06:39:28;11.40;;;7.50;;
18693;SDS011;9477;51.414;10.362;2023-04-25T06:41:33;14.23;;;6.57;;
18693;SDS011;9477;51.414;10.362;2023-04-25T06:43:36;12.73;;;7.03;;
18693;SDS011;9477;51.414;10.362;2023-04-25T06:45:39;12.60;;;6.83;;
18693;SDS011;9477;51.414;10.362;2023-04-25T06:47:41;13.07;;;6.87;;
18693;SDS011;9477;51.414;10.362;2023-04-25T06:49:44;13.77;;;5.93;;
18693;SDS011;9477;51.414;10.362;2023-04-25T06:51:49;12.83;;;5.50;;
18693;SDS011;9477;51.414;10.362;2023-04-25T06:53:51;15.47;;;5.53;;
18693;SDS011;9477;51.414;10.362;2023-04-25T06:55:54;19.10;;;5.87;;
18693;SDS011;9477;51.414;10.362;2023-04-25T06:57:57;15.27;;;5.83;;
18693;SDS011;9477;51.414;10.362;2023-04-25T07:00:00;18.70;;;5.83;;
18693;SDS011;9477;51.414;10.362;2023-04-25T07:02:02;12.10;;;4.47;;
18693;SDS011;9477;51.414;10.362;2023-04-25T07:04:05;16.53;;;5.17;;
18693;SDS011;9477;51.414;10.362;2023-04-25T07:06:08;18.20;;;4.60;;
18693;SDS011;9477;51.414;10.362;2023-04-25T07:08:12;19.67;;;4.67;;
18693;SDS011;9477;51.414;10.362;2023-04-25T07:10:16;19.47;;;5.07;;
18693;SDS011;9477;51.414;10.362;2023-04-25T07:12:19;18.43;;;4.20;;
18693;SDS011;9477;51.414;10.362;2023-04-25T07:14:21;19.40;;;5.13;;
18693;SDS011;9477;51.414;10.362;2023-04-25T07:16:25;18.47;;;4.50;;
18693;SDS011;9477;51.414;10.362;2023-04-25T07:18:28;21.57;;;5.07;;
18693;SDS011;9477;51.414;10.362;2023-04-25T07:20:31;24.57;;;5.23;;
18693;SDS011;9477;51.414;10.362;2023-04-25T07:22:33;20.30;;;4.53;;
18693;SDS011;9477;51.414;10.362;2023-04-25T07:24:38;15.83;;;4.27;;
18693;SDS011;9477;51.414;10.362;2023-04-25T07:26:41;14.83;;;4.13;;
18693;SDS011;9477;51.414;10.362;2023-04-25T07:28:44;22.83;;;4.43;;
18693;SDS011;9477;51.414;10.362;2023-04-25T07:30:51;21.20;;;4.10;;
18693;SDS011;9477;51.414;10.362;2023-04-25T07:32:53;25.00;;;5.10;;
18693;SDS011;9477;51.414;10.362;2023-04-25T07:34:57;19.90;;;4.63;;
18693;SDS011;9477;51.414;10.362;2023-04-25T07:36:59;20.57;;;4.57;;
18693;SDS011;9477;51.414;10.362;2023-04-25T07:39:02;22.93;;;5.03;;
18693;SDS011;9477;51.414;10.362;2023-04-25T07:41:07;22.50;;;4.40;;
18693;SDS011;9477;51.414;10.362;2023-04-25T07:43:10;19.13;;;4.60;;
18693;SDS011;9477;51.414;10.362;2023-04-25T07:45:16;24.60;;;5.10;;
18693;SDS011;9477;51.414;10.362;2023-04-25T07:47:19;16.80;;;4.10;;
18693;SDS011;9477;51.414;10.362;2023-04-25T07:49:22;16.07;;;4.97;;
18693;SDS011;9477;51.414;10.362;2023-04-25T07:51:24;19.40;;;4.93;;
18693;SDS011;9477;51.414;10.362;2023-04-25T07:53:27;23.87;;;4.30;;
18693;SDS011;9477;51.414;10.362;2023-04-25T07:55:30;15.93;;;3.77;;
18693;SDS011;9477;51.414;10.362;2023-04-25T07:57:34;20.03;;;3.87;;
18693;SDS011;9477;51.414;10.362;2023-04-25T07:59:38;23.63;;;5.17;;
18693;SDS011;9477;51.414;10.362;2023-04-25T08:01:41;19.20;;;4.90;;
18693;SDS011;9477;51.414;10.362;2023-04-25T08:03:44;22.83;;;5.40;;
18693;SDS011;9477;51.414;10.362;2023-04-25T08:05:47;24.03;;;5.40;;
18693;SDS011;9477;51.414;10.362;2023-04-25T08:07:50;21.63;;;4.60;;
18693;SDS011;9477;51.414;10.362;2023-04-25T08:09:53;22.53;;;5.37;;
18693;SDS011;9477;51.414;10.362;2023-04-25T08:11:56;19.27;;;5.50;;
18693;SDS011;9477;51.414;10.362;2023-04-25T08:14:00;14.83;;;3.53;;
18693;SDS011;9477;51.414;10.362;2023-04-25T08:16:03;22.27;;;4.70;;
18693;SDS011;9477;51.414;10.362;2023-04-25T08:18:07;18.67;;;3.90;;
18693;SDS011;9477;51.414;10.362;2023-04-25T08:20:11;13.07;;;3.17;;
18693;SDS011;9477;51.414;10.362;2023-04-25T08:22:14;18.73;;;4.53;;
18693;SDS011;9477;51.414;10.362;2023-04-25T08:24:17;18.63;;;4.17;;
18693;SDS011;9477;51.414;10.362;2023-04-25T08:26:20;18.07;;;3.50;;
18693;SDS011;9477;51.414;10.362;2023-04-25T08:28:23;18.43;;;4.43;;
18693;SDS011;9477;51.414;10.362;2023-04-25T08:30:27;17.47;;;3.83;;
18693;SDS011;9477;51.414;10.362;2023-04-25T08:32:30;19.77;;;4.10;;
18693;SDS011;9477;51.414;10.362;2023-04-25T08:34:35;18.60;;;3.40;;
18693;SDS011;9477;51.414;10.362;2023-04-25T08:36:40;16.93;;;4.27;;
18693;SDS011;9477;51.414;10.362;2023-04-25T08:38:43;14.50;;;3.40;;
18693;SDS011;9477;51.414;10.362;2023-04-25T08:40:46;24.00;;;4.13;;
18693;SDS011;9477;51.414;10.362;2023-04-25T08:42:52;26.43;;;3.87;;
18693;SDS011;9477;51.414;10.362;2023-04-25T08:44:56;11.20;;;3.17;;
18693;SDS011;9477;51.414;10.362;2023-04-25T08:47:03;14.70;;;3.47;;
18693;SDS011;9477;51.414;10.362;2023-04-25T08:49:07;18.67;;;3.50;;
18693;SDS011;9477;51.414;10.362;2023-04-25T08:51:12;17.90;;;3.20;;
18693;SDS011;9477;51.414;10.362;2023-04-25T08:53:25;13.80;;;3.70;;
18693;SDS011;9477;51.414;10.362;2023-04-25T08:55:29;18.13;;;3.90;;
18693;SDS011;9477;51.414;10.362;2023-04-25T08:57:34;24.73;;;3.77;;
18693;SDS011;9477;51.414;10.362;2023-04-25T08:59:37;21.17;;;4.13;;
18693;SDS011;9477;51.414;10.362;2023-04-25T09:01:41;18.80;;;4.37;;
18693;SDS011;9477;51.414;10.362;2023-04-25T09:03:46;16.87;;;3.80;;
18693;SDS011;9477;51.414;10.362;2023-04-25T09:05:50;15.80;;;3.43;;
18693;SDS011;9477;51.414;10.362;2023-04-25T09:07:53;18.37;;;4.10;;
18693;SDS011;9477;51.414;10.362;2023-04-25T09:09:57;14.77;;;3.43;;
18693;SDS011;9477;51.414;10.362;2023-04-25T09:12:03;16.67;;;4.27;;
18693;SDS011;9477;51.414;10.362;2023-04-25T09:14:11;19.43;;;3.93;;
18693;SDS011;9477;51.414;10.362;2023-04-25T09:16:14;22.63;;;3.80;;
18693;SDS011;9477;51.414;10.362;2023-04-25T09:18:23;18.07;;;3.73;;
18693;SDS011;9477;51.414;10.362;2023-04-25T09:20:32;17.47;;;3.70;;
18693;SDS011;9477;51.414;10.362;2023-04-25T09:23:01;13.17;;;3.23;;
18693;SDS011;9477;51.414;10.362;2023-04-25T09:25:08;19.23;;;3.60;;
18693;SDS011;9477;51.414;10.362;2023-04-25T09:27:13;16.30;;;3.27;;
18693;SDS011;9477;51.414;10.362;2023-04-25T09:29:24;14.23;;;3.53;;
18693;SDS011;9477;51.414;10.362;2023-04-25T09:31:32;14.13;;;3.23;;
18693;SDS011;9477;51.414;10.362;2023-04-25T09:33:36;15.07;;;3.53;;
18693;SDS011;9477;51.414;10.362;2023-04-25T09:35:43;17.07;;;3.10;;
18693;SDS011;9477;51.414;10.362;2023-04-25T09:37:47;10.27;;;2.90;;
18693;SDS011;9477;51.414;10.362;2023-04-25T09:39:51;13.10;;;3.23;;
18693;SDS011;9477;51.414;10.362;2023-04-25T09:41:55;15.13;;;3.23;;
18693;SDS011;9477;51.414;10.362;2023-04-25T09:43:59;13.37;;;3.00;;
18693;SDS011;9477;51.414;10.362;2023-04-25T09:46:04;7.80;;;2.80;;
18693;SDS011;9477;51.414;10.362;2023-04-25T09:48:11;13.97;;;3.50;;
18693;SDS011;9477;51.414;10.362;2023-04-25T09:50:15;15.70;;;3.17;;
18693;SDS011;9477;51.414;10.362;2023-04-25T09:52:22;9.67;;;2.43;;
18693;SDS011;9477;51.414;10.362;2023-04-25T09:54:26;13.67;;;2.97;;
18693;SDS011;9477;51.414;10.362;2023-04-25T09:56:29;17.87;;;3.50;;
18693;SDS011;9477;51.414;10.362;2023-04-25T09:58:38;11.33;;;3.13;;
18693;SDS011;9477;51.414;10.362;2023-04-25T10:00:42;6.53;;;2.40;;
18693;SDS011;9477;51.414;10.362;2023-04-25T10:02:46;11.87;;;3.07;;
18693;SDS011;9477;51.414;10.362;2023-04-25T10:04:50;8.90;;;2.87;;
18693;SDS011;9477;51.414;10.362;2023-04-25T10:06:56;12.67;;;2.90;;
18693;SDS011;9477;51.414;10.362;2023-04-25T10:09:01;11.90;;;3.57;;
18693;SDS011;9477;51.414;10.362;2023-04-25T10:11:06;19.53;;;3.87;;
18693;SDS011;9477;51.414;10.362;2023-04-25T10:13:10;12.67;;;2.90;;
18693;SDS011;9477;51.414;10.362;2023-04-25T10:15:15;10.10;;;2.83;;
18693;SDS011;9477;51.414;10.362;2023-04-25T10:17:18;8.57;;;2.60;;
18693;SDS011;9477;51.414;10.362;2023-04-25T10:19:22;6.43;;;2.47;;
18693;SDS011;9477;51.414;10.362;2023-04-25T10:21:26;13.83;;;2.90;;
18693;SDS011;9477;51.414;10.362;2023-04-25T10:23:33;10.67;;;2.80;;
18693;SDS011;9477;51.414;10.362;2023-04-25T10:25:40;8.77;;;2.67;;
18693;SDS011;9477;51.414;10.362;2023-04-25T10:27:44;11.00;;;3.07;;
18693;SDS011;9477;51.414;10.362;2023-04-25T10:29:52;7.07;;;2.30;;
18693;SDS011;9477;51.414;10.362;2023-04-25T10:32:04;10.70;;;2.87;;
18693;SDS011;9477;51.414;10.362;2023-04-25T10:34:10;10.73;;;2.67;;
18693;SDS011;9477;51.414;10.362;2023-04-25T10:36:13;11.37;;;2.97;;
18693;SDS011;9477;51.414;10.362;2023-04-25T10:38:17;10.47;;;2.83;;
18693;SDS011;9477;51.414;10.362;2023-04-25T10:40:21;8.97;;;3.03;;
18693;SDS011;9477;51.414;10.362;2023-04-25T10:42:26;6.83;;;2.43;;
18693;SDS011;9477;51.414;10.362;2023-04-25T10:44:31;11.40;;;2.53;;
18693;SDS011;9477;51.414;10.362;2023-04-25T10:46:34;6.87;;;2.40;;
18693;SDS011;9477;51.414;10.362;2023-04-25T10:48:37;12.33;;;3.73;;
18693;SDS011;9477;51.414;10.362;2023-04-25T10:50:47;7.57;;;2.40;;
18693;SDS011;9477;51.414;10.362;2023-04-25T10:52:51;13.30;;;2.73;;
18693;SDS011;9477;51.414;10.362;2023-04-25T10:54:54;10.77;;;2.10;;
18693;SDS011;9477;51.414;10.362;2023-04-25T10:56:58;7.23;;;1.97;;
18693;SDS011;9477;51.414;10.362;2023-04-25T10:59:06;4.67;;;1.70;;
18693;SDS011;9477;51.414;10.362;2023-04-25T11:01:12;7.80;;;2.30;;
18693;SDS011;9477;51.414;10.362;2023-04-25T11:03:15;8.33;;;2.07;;
18693;SDS011;9477;51.414;10.362;2023-04-25T11:05:20;8.50;;;2.20;;
18693;SDS011;9477;51.414;10.362;2023-04-25T11:07:26;8.80;;;1.70;;
18693;SDS011;9477;51.414;10.362;2023-04-25T11:09:37;5.87;;;1.70;;
18693;SDS011;9477;51.414;10.362;2023-04-25T11:11:42;5.30;;;1.60;;
18693;SDS011;9477;51.414;10.362;2023-04-25T11:13:47;5.47;;;1.70;;
18693;SDS011;9477;51.414;10.362;2023-04-25T11:15:52;7.53;;;2.17;;
18693;SDS011;9477;51.414;10.362;2023-04-25T11:18:15;8.50;;;1.90;;
18693;SDS011;9477;51.414;10.362;2023-04-25T11:20:19;5.30;;;1.90;;
18693;SDS011;9477;51.414;10.362;2023-04-25T11:22:22;5.30;;;1.43;;
18693;SDS011;9477;51.414;10.362;2023-04-25T11:24:26;7.67;;;1.93;;
18693;SDS011;9477;51.414;10.362;2023-04-25T11:26:29;7.20;;;2.17;;
18693;SDS011;9477;51.414;10.362;2023-04-25T11:28:32;6.30;;;1.80;;
18693;SDS011;9477;51.414;10.362;2023-04-25T11:30:35;5.13;;;1.60;;
18693;SDS011;9477;51.414;10.362;2023-04-25T11:32:41;8.70;;;1.70;;
18693;SDS011;9477;51.414;10.362;2023-04-25T11:34:44;7.37;;;2.30;;
18693;SDS011;9477;51.414;10.362;2023-04-25T11:36:47;10.20;;;3.27;;
18693;SDS011;9477;51.414;10.362;2023-04-25T11:38:50;10.73;;;2.53;;
18693;SDS011;9477;51.414;10.362;2023-04-25T11:40:54;7.43;;;2.07;;
18693;SDS011;9477;51.414;10.362;2023-04-25T11:42:59;5.93;;;1.83;;
18693;SDS011;9477;51.414;10.362;2023-04-25T11:45:04;9.60;;;3.27;;
18693;SDS011;9477;51.414;10.362;2023-04-25T11:47:08;8.77;;;2.40;;
18693;SDS011;9477;51.414;10.362;2023-04-25T11:49:12;6.03;;;2.10;;
18693;SDS011;9477;51.414;10.362;2023-04-25T11:51:16;10.50;;;5.03;;
18693;SDS011;9477;51.414;10.362;2023-04-25T11:53:19;9.10;;;2.87;;
18693;SDS011;9477;51.414;10.362;2023-04-25T11:55:22;7.63;;;2.37;;
18693;SDS011;9477;51.414;10.362;2023-04-25T11:57:24;4.63;;;1.90;;
18693;SDS011;9477;51.414;10.362;2023-04-25T11:59:27;7.07;;;2.07;;
18693;SDS011;9477;51.414;10.362;2023-04-25T12:01:31;11.97;;;2.03;;
18693;SDS011;9477;51.414;10.362;2023-04-25T12:03:45;7.80;;;2.40;;
18693;SDS011;9477;51.414;10.362;2023-04-25T12:05:49;9.07;;;2.70;;
18693;SDS011;9477;51.414;10.362;2023-04-25T12:07:53;8.13;;;2.33;;
18693;SDS011;9477;51.414;10.362;2023-04-25T12:09:56;11.30;;;3.53;;
18693;SDS011;9477;51.414;10.362;2023-04-25T12:11:59;9.50;;;2.33;;
18693;SDS011;9477;51.414;10.362;2023-04-25T12:14:04;10.23;;;2.57;;
18693;SDS011;9477;51.414;10.362;2023-04-25T12:16:07;10.03;;;2.30;;
18693;SDS011;9477;51.414;10.362;2023-04-25T12:18:10;8.47;;;2.27;;